Startpagina
METAR-TAF:

METAR-TAF

Vliegvelden :

OR Tambo International Airport

Johannesburg, Zuid-Afrika

breedte: 26-08S, lengte: 028-14E, hoogte: 1694 m

Actueel weer

Dit bericht is 12 minuten geleden gemaakt, om 15:00 UTC
Wind 9 kt uit het westnoordwesten, variërend tussen het zuidzuidwesten en het noordnoordwesten
Temperatuur 18°C
Vochtigheid 37%
Druk 1024 hPa
Zicht 10 km of meer
geen wolken onder 1500 m en geen cumulonimbus

METAR: FAOR 191500Z 29009KT 210V330 CAVOK 18/03 Q1024 NOSIG

Tijdstip: 17:12 (15:12 UTC)

Verwachting

Dit bericht is 5 uur en het 12 minuten geleden gemaakt, om 10:00 UTC
Verwachting geldig van 19 om 12 UTC tot 20 om 18 UTC
Wind 10 kt uit het noordwesten
Zicht 10 km of meer
geen wolken onder 1500 m en geen cumulonimbus

TAF: FAOR 191000Z 1912/2018 32010KT CAVOK TX23/2012Z TN10/2004Z

Waarnemingen en weersverwachtingen van meer dan 4000 vliegvelden (METAR en TAF).

De beschikbare stations zijn de gele en rode punten op de kaart.

Ga met uw muis naar het station om de naam te zien.

Klik dan om waarnemingen en weersverwachtingen te zien.

kaart wijzigen: klik op de groene knoppen met een zwart kruis om in te zoomen, op de groene knop met een streepje om uit te zoomen of op de groene pijlen voor aangrenzende kaarten.


METAR-TAF: